Kingman, Indiana
Current Conditions -  °F | °C
As of 3:55 AM on Thursday 23 Oct 2014 (Local Time) from KDNV Reporting Station
Clear Clear  
Wind Chill: 37°   Ceiling: Unl
Heat Index: 37°   Visibility: 7mi
Dew Point: 35°   Wind: 3mph
Humidity: 94%   Direction: 100°E
Pressure: 30.22"   Gusts: NA
Location:  39.97°N, 87.28°W
Report Text: KDNV 230755Z AUTO 10003KT 7SM CLR 03/02 A3022 RMK AO2 T00250016
Loading
Personal Weather Stations






























Interactive Weather Map
Tropical Storm Tracking
New forecast layout! Learn more

10-Day Weather Forecast

Advertisements
Track Severe Weather on mobile